createdAt,value
2023-03-27T00:01:37.915Z,92.91
2023-03-27T00:03:41.028Z,93.27
2023-03-27T00:05:46.109Z,93.54
2023-03-27T00:07:51.578Z,93.40
2023-03-27T00:09:54.186Z,93.60
2023-03-27T00:11:56.970Z,93.49
2023-03-27T00:14:00.098Z,93.91
2023-03-27T00:16:03.114Z,93.85
2023-03-27T00:18:05.872Z,94.34
2023-03-27T00:20:08.811Z,94.12
2023-03-27T00:22:11.552Z,93.98
2023-03-27T00:24:14.226Z,93.67
2023-03-27T00:26:16.883Z,93.82
2023-03-27T00:28:19.443Z,93.55
2023-03-27T00:30:23.401Z,93.98
2023-03-27T00:32:26.821Z,93.98
2023-03-27T00:34:30.368Z,93.76
2023-03-27T00:36:32.938Z,94.34
2023-03-27T00:38:37.019Z,93.76
2023-03-27T00:40:40.277Z,93.90
2023-03-27T00:42:42.978Z,94.27
2023-03-27T00:44:45.572Z,94.36
2023-03-27T00:46:49.758Z,94.54
2023-03-27T00:48:53.371Z,94.73
2023-03-27T00:50:58.569Z,95.26
2023-03-27T00:53:08.255Z,95.66
2023-03-27T00:55:15.496Z,96.43
2023-03-27T00:57:19.796Z,96.68
2023-03-27T00:59:31.265Z,96.99
2023-03-27T01:01:34.060Z,97.47
2023-03-27T01:03:37.188Z,97.63
2023-03-27T01:05:40.915Z,97.83
2023-03-27T01:08:00.637Z,97.94
2023-03-27T01:10:06.569Z,98.40
2023-03-27T01:12:50.535Z,99.83
2023-03-27T01:14:58.884Z,100.00
2023-03-27T01:17:13.177Z,100.00
2023-03-27T01:20:00.235Z,100.00
2023-03-27T01:22:38.911Z,100.00
2023-03-27T01:25:22.693Z,100.00
2023-03-27T01:27:52.641Z,100.00
2023-03-27T01:30:20.010Z,100.00
2023-03-27T01:32:56.714Z,100.00
2023-03-27T01:35:06.348Z,100.00
2023-03-27T01:37:35.101Z,100.00
2023-03-27T01:39:40.993Z,100.00
2023-03-27T01:41:50.109Z,100.00
2023-03-27T01:44:11.932Z,100.00
2023-03-27T01:46:21.756Z,100.00
2023-03-27T01:48:36.398Z,100.00
2023-03-27T01:50:59.578Z,100.00
2023-03-27T01:53:15.063Z,100.00
2023-03-27T01:55:24.305Z,100.00
2023-03-27T01:57:37.431Z,100.00
2023-03-27T02:00:19.378Z,100.00
2023-03-27T02:02:31.212Z,100.00
2023-03-27T02:04:47.168Z,100.00
2023-03-27T02:06:55.538Z,100.00
2023-03-27T02:09:12.203Z,100.00
2023-03-27T02:11:15.681Z,100.00
2023-03-27T02:13:32.883Z,100.00
2023-03-27T02:15:41.044Z,100.00
2023-03-27T02:17:48.292Z,100.00
2023-03-27T02:19:58.915Z,100.00
2023-03-27T02:22:01.864Z,100.00
2023-03-27T02:24:06.367Z,100.00
2023-03-27T02:26:13.323Z,100.00
2023-03-27T02:28:54.010Z,100.00
2023-03-27T02:31:33.115Z,100.00
2023-03-27T02:34:08.059Z,100.00
2023-03-27T02:36:44.773Z,100.00
2023-03-27T02:38:56.104Z,100.00
2023-03-27T02:41:26.973Z,100.00
2023-03-27T02:43:47.772Z,100.00
2023-03-27T02:46:17.042Z,100.00
2023-03-27T02:48:25.372Z,100.00
2023-03-27T02:50:34.404Z,100.00
2023-03-27T02:52:42.365Z,100.00
2023-03-27T02:54:52.479Z,100.00
2023-03-27T02:57:03.684Z,100.00
2023-03-27T02:59:11.244Z,100.00
2023-03-27T03:01:16.818Z,100.00
2023-03-27T03:03:28.962Z,100.00
2023-03-27T03:05:32.979Z,100.00
2023-03-27T03:07:38.324Z,100.00
2023-03-27T03:09:42.284Z,100.00
2023-03-27T03:11:48.891Z,100.00
2023-03-27T03:13:51.477Z,100.00
2023-03-27T03:15:54.316Z,100.00
2023-03-27T03:17:57.007Z,100.00
2023-03-27T03:19:59.736Z,100.00
2023-03-27T03:22:02.659Z,100.00
2023-03-27T03:24:06.003Z,100.00
2023-03-27T03:26:08.763Z,100.00
2023-03-27T03:28:11.395Z,100.00
2023-03-27T03:30:16.650Z,100.00
2023-03-27T03:32:20.267Z,100.00
2023-03-27T03:34:22.901Z,100.00
2023-03-27T03:36:25.548Z,100.00
2023-03-27T03:38:30.098Z,100.00
2023-03-27T03:40:41.031Z,100.00
2023-03-27T03:42:47.884Z,100.00
2023-03-27T03:44:50.900Z,100.00
2023-03-27T03:46:53.443Z,100.00
2023-03-27T03:48:57.919Z,100.00
2023-03-27T03:51:01.570Z,100.00
2023-03-27T03:53:08.733Z,100.00
2023-03-27T03:55:12.515Z,100.00
2023-03-27T03:57:15.552Z,100.00
2023-03-27T03:59:18.629Z,100.00
2023-03-27T04:01:21.495Z,100.00
2023-03-27T04:03:27.338Z,100.00
2023-03-27T04:05:30.831Z,100.00
2023-03-27T04:07:35.914Z,100.00
2023-03-27T04:09:38.519Z,100.00
2023-03-27T04:11:41.110Z,100.00
2023-03-27T04:13:43.712Z,100.00
2023-03-27T04:15:46.332Z,100.00
2023-03-27T04:17:49.215Z,100.00
2023-03-27T04:19:54.387Z,100.00
2023-03-27T04:21:58.397Z,100.00
2023-03-27T04:24:02.882Z,100.00
2023-03-27T04:26:06.260Z,100.00
2023-03-27T04:28:10.541Z,99.86
2023-03-27T04:30:16.089Z,99.35
2023-03-27T04:32:19.891Z,98.81
2023-03-27T04:34:22.559Z,98.71
2023-03-27T04:36:25.901Z,98.06
2023-03-27T04:38:31.712Z,97.51
2023-03-27T04:40:34.318Z,97.54
2023-03-27T04:42:44.172Z,97.45
2023-03-27T04:44:47.824Z,97.99
2023-03-27T04:46:50.535Z,97.99
2023-03-27T04:48:53.312Z,97.72
2023-03-27T04:50:56.233Z,97.39
2023-03-27T04:53:00.767Z,97.18
2023-03-27T04:55:05.118Z,96.56
2023-03-27T04:57:10.259Z,95.45
2023-03-27T04:59:13.719Z,95.12
2023-03-27T05:01:17.507Z,94.59
2023-03-27T05:03:20.346Z,94.45
2023-03-27T05:05:23.321Z,94.17
2023-03-27T05:07:26.782Z,94.16
2023-03-27T05:09:29.471Z,94.52
2023-03-27T05:11:32.071Z,95.14
2023-03-27T05:13:34.802Z,95.57
2023-03-27T05:15:39.342Z,94.92
2023-03-27T05:17:43.669Z,94.14
2023-03-27T05:19:46.778Z,93.27
2023-03-27T05:21:49.435Z,92.63
2023-03-27T05:23:52.333Z,92.68
2023-03-27T05:25:59.988Z,92.71
2023-03-27T05:28:03.616Z,92.40
2023-03-27T05:30:07.158Z,91.58
2023-03-27T05:32:09.797Z,91.19
2023-03-27T05:34:13.752Z,90.49
2023-03-27T05:36:16.427Z,90.53
2023-03-27T05:38:20.136Z,90.96
2023-03-27T05:40:25.807Z,91.58
2023-03-27T05:42:28.505Z,91.92
2023-03-27T05:44:31.408Z,91.91
2023-03-27T05:46:34.088Z,92.02
2023-03-27T05:48:36.763Z,91.99
2023-03-27T05:50:39.454Z,92.11
2023-03-27T05:52:42.469Z,91.90
2023-03-27T05:54:45.068Z,92.11
2023-03-27T05:56:47.886Z,91.78
2023-03-27T05:58:50.654Z,90.88
2023-03-27T06:00:54.435Z,90.50
2023-03-27T06:02:59.453Z,90.24
2023-03-27T06:05:02.235Z,89.80
2023-03-27T06:07:06.265Z,89.81
2023-03-27T06:09:09.935Z,88.93
2023-03-27T06:11:15.568Z,87.50
2023-03-27T06:13:18.760Z,86.65
2023-03-27T06:15:21.612Z,85.97
2023-03-27T06:17:24.446Z,85.61
2023-03-27T06:19:27.539Z,85.22
2023-03-27T06:21:30.179Z,84.92
2023-03-27T06:23:32.926Z,85.05
2023-03-27T06:25:39.338Z,85.68
2023-03-27T06:27:43.632Z,85.31
2023-03-27T06:29:47.106Z,85.69
2023-03-27T06:31:49.835Z,86.22
2023-03-27T06:33:52.711Z,86.42
2023-03-27T06:36:00.810Z,86.70
2023-03-27T06:38:04.123Z,87.21
2023-03-27T06:40:10.584Z,86.08
2023-03-27T06:42:13.224Z,85.86
2023-03-27T06:44:16.231Z,85.30
2023-03-27T06:46:19.107Z,84.81
2023-03-27T06:48:22.718Z,84.33
2023-03-27T06:50:27.590Z,83.68
2023-03-27T06:52:30.286Z,83.64
2023-03-27T06:54:32.894Z,84.04
2023-03-27T06:56:35.632Z,83.74
2023-03-27T06:58:38.263Z,83.81
2023-03-27T07:00:41.833Z,83.99
2023-03-27T07:02:44.534Z,84.33
2023-03-27T07:04:54.406Z,84.34
2023-03-27T07:07:00.816Z,85.13
2023-03-27T07:09:03.725Z,84.92
2023-03-27T07:11:11.967Z,84.77
2023-03-27T07:13:16.787Z,84.45
2023-03-27T07:15:20.432Z,84.10
2023-03-27T07:17:23.107Z,83.74
2023-03-27T07:19:25.706Z,83.68
2023-03-27T07:21:28.442Z,83.39
2023-03-27T07:23:31.566Z,83.16
2023-03-27T07:25:38.268Z,82.21
2023-03-27T07:27:41.853Z,81.11
2023-03-27T07:29:44.490Z,81.57
2023-03-27T07:31:56.897Z,80.20
2023-03-27T07:34:03.317Z,79.73
2023-03-27T07:36:08.086Z,79.43
2023-03-27T07:38:10.885Z,79.74
2023-03-27T07:40:13.571Z,80.04
2023-03-27T07:42:16.223Z,79.97
2023-03-27T07:44:19.880Z,79.23
2023-03-27T07:46:24.809Z,79.16
2023-03-27T07:48:29.085Z,79.34
2023-03-27T07:50:31.783Z,78.21
2023-03-27T07:52:36.738Z,78.00
2023-03-27T07:54:39.347Z,76.42
2023-03-27T07:56:42.228Z,74.87
2023-03-27T07:58:45.040Z,73.89
2023-03-27T08:00:53.218Z,73.16
2023-03-27T08:03:06.233Z,72.19
2023-03-27T08:05:10.278Z,70.94
2023-03-27T08:07:13.074Z,71.04
2023-03-27T08:09:16.166Z,70.76
2023-03-27T08:11:30.324Z,70.83
2023-03-27T08:13:33.338Z,71.27
2023-03-27T08:15:35.944Z,70.71
2023-03-27T08:17:38.693Z,70.88
2023-03-27T08:19:41.810Z,71.11
2023-03-27T08:21:47.784Z,71.99
2023-03-27T08:23:51.510Z,72.53
2023-03-27T08:25:55.174Z,72.87
2023-03-27T08:27:58.136Z,72.40
2023-03-27T08:30:01.618Z,72.86
2023-03-27T08:32:08.608Z,73.10
2023-03-27T08:34:11.732Z,72.39
2023-03-27T08:36:20.204Z,73.02
2023-03-27T08:38:26.988Z,73.25
2023-03-27T08:40:34.192Z,72.44
2023-03-27T08:42:43.046Z,71.72
2023-03-27T08:44:45.850Z,71.65
2023-03-27T08:46:56.235Z,71.04
2023-03-27T08:49:29.780Z,70.27
2023-03-27T08:51:38.725Z,70.27
2023-03-27T08:54:08.126Z,70.17
2023-03-27T08:56:15.824Z,70.00
2023-03-27T08:58:21.021Z,68.84
2023-03-27T09:00:32.051Z,68.98
2023-03-27T09:02:53.546Z,67.62
2023-03-27T09:05:10.146Z,67.81
2023-03-27T09:07:34.575Z,66.97
2023-03-27T09:09:59.606Z,68.33
2023-03-27T09:12:31.311Z,67.58
2023-03-27T09:14:39.164Z,66.62
2023-03-27T09:16:50.364Z,67.55
2023-03-27T09:18:59.012Z,66.85
2023-03-27T09:21:21.942Z,66.67
2023-03-27T09:23:38.366Z,66.78
2023-03-27T09:25:47.668Z,65.80
2023-03-27T09:27:52.563Z,64.84
2023-03-27T09:30:16.338Z,64.59
2023-03-27T09:32:19.263Z,65.05
2023-03-27T09:34:32.741Z,64.92
2023-03-27T09:36:38.924Z,64.32
2023-03-27T09:38:44.802Z,63.89
2023-03-27T09:41:08.447Z,63.05
2023-03-27T09:43:26.552Z,65.38
2023-03-27T09:45:29.308Z,65.88
2023-03-27T09:47:44.275Z,65.78
2023-03-27T09:49:56.790Z,66.27
2023-03-27T09:52:00.486Z,67.21
2023-03-27T09:54:03.841Z,67.58
2023-03-27T09:56:13.311Z,67.43
2023-03-27T09:58:32.176Z,68.35
2023-03-27T10:00:35.573Z,67.87
2023-03-27T10:02:38.572Z,68.15
2023-03-27T10:05:17.038Z,68.69
2023-03-27T10:07:27.117Z,69.48
2023-03-27T10:09:34.504Z,69.26
2023-03-27T10:11:37.241Z,69.13
2023-03-27T10:13:45.337Z,69.91
2023-03-27T10:15:48.160Z,69.14
2023-03-27T10:17:51.114Z,69.36
2023-03-27T10:20:00.647Z,70.19
2023-03-27T10:22:31.756Z,68.70
2023-03-27T10:24:44.144Z,69.62
2023-03-27T10:26:52.687Z,69.09
2023-03-27T10:29:01.881Z,67.54
2023-03-27T10:31:11.255Z,67.07
2023-03-27T10:33:14.350Z,66.31
2023-03-27T10:35:38.036Z,67.17
2023-03-27T10:37:41.847Z,66.21
2023-03-27T10:39:55.287Z,65.64
2023-03-27T10:42:02.105Z,65.29
2023-03-27T10:44:17.973Z,64.23
2023-03-27T10:46:23.483Z,64.58
2023-03-27T10:48:41.160Z,64.52
2023-03-27T10:50:54.500Z,65.25
2023-03-27T10:53:18.406Z,65.72
2023-03-27T10:55:44.826Z,66.23
2023-03-27T10:57:54.650Z,66.16
2023-03-27T11:00:41.751Z,66.07
2023-03-27T11:02:57.750Z,66.49
2023-03-27T11:05:11.487Z,66.67
2023-03-27T11:07:33.917Z,66.92
2023-03-27T11:09:46.628Z,67.04
2023-03-27T11:11:58.524Z,66.54
2023-03-27T11:14:05.972Z,66.76
2023-03-27T11:16:29.659Z,66.70
2023-03-27T11:18:39.371Z,66.65
2023-03-27T11:20:59.998Z,66.25
2023-03-27T11:23:18.691Z,66.67
2023-03-27T11:25:38.594Z,66.97
2023-03-27T11:27:51.829Z,66.46
2023-03-27T11:30:10.450Z,66.64
2023-03-27T11:32:28.510Z,66.60
2023-03-27T11:34:36.700Z,66.64
2023-03-27T11:36:51.612Z,66.84
2023-03-27T11:39:29.180Z,66.84
2023-03-27T11:41:31.943Z,67.26
2023-03-27T11:43:38.765Z,67.80
2023-03-27T11:45:57.258Z,68.04
2023-03-27T11:48:12.333Z,68.69
2023-03-27T11:50:29.768Z,69.39
2023-03-27T11:52:44.319Z,69.70
2023-03-27T11:55:06.813Z,70.80
2023-03-27T11:57:55.853Z,70.18
2023-03-27T12:00:05.288Z,70.74
2023-03-27T12:02:40.762Z,70.60
2023-03-27T12:04:53.210Z,70.74
2023-03-27T12:07:09.816Z,70.98
2023-03-27T12:09:25.499Z,70.81
2023-03-27T12:11:37.449Z,70.67
2023-03-27T12:13:58.289Z,71.18
2023-03-27T12:16:27.520Z,71.28
2023-03-27T12:18:51.184Z,71.43
2023-03-27T12:21:17.894Z,71.25
2023-03-27T12:23:42.664Z,71.91
2023-03-27T12:26:09.421Z,71.92
2023-03-27T12:28:23.700Z,72.29
2023-03-27T12:30:32.571Z,72.71
2023-03-27T12:32:48.965Z,73.37
2023-03-27T12:35:24.627Z,73.94
2023-03-27T12:37:34.773Z,74.13
2023-03-27T12:39:57.352Z,74.90
2023-03-27T12:42:00.032Z,75.54
2023-03-27T12:44:06.470Z,76.34
2023-03-27T12:46:23.959Z,77.33
2023-03-27T12:48:27.370Z,77.60
2023-03-27T12:50:35.213Z,77.75
2023-03-27T12:52:38.674Z,78.24
2023-03-27T12:55:01.783Z,79.16
2023-03-27T12:57:25.114Z,80.02
2023-03-27T12:59:29.855Z,80.11
2023-03-27T13:01:54.904Z,80.63
2023-03-27T13:04:40.621Z,80.96
2023-03-27T13:06:56.149Z,81.05
2023-03-27T13:09:28.554Z,81.08
2023-03-27T13:11:34.037Z,81.82
2023-03-27T13:13:45.521Z,82.03
2023-03-27T13:16:19.377Z,82.70
2023-03-27T13:18:45.946Z,82.88
2023-03-27T13:21:09.435Z,83.48
2023-03-27T13:23:34.978Z,83.92
2023-03-27T13:26:03.639Z,84.60
2023-03-27T13:28:31.942Z,85.24
2023-03-27T13:30:50.724Z,85.63
2023-03-27T13:33:31.751Z,86.05
2023-03-27T13:35:41.552Z,86.08
2023-03-27T13:37:51.246Z,86.21
2023-03-27T13:40:07.586Z,86.14
2023-03-27T13:42:22.496Z,85.88
2023-03-27T13:44:30.569Z,86.01
2023-03-27T13:46:35.692Z,85.75
2023-03-27T13:48:38.489Z,85.50
2023-03-27T13:50:54.545Z,85.45
2023-03-27T13:53:15.567Z,85.10
2023-03-27T13:55:29.088Z,85.06
2023-03-27T13:57:56.265Z,85.03
2023-03-27T14:00:08.562Z,85.16
2023-03-27T14:02:29.667Z,85.48
2023-03-27T14:05:09.792Z,85.25
2023-03-27T14:07:39.658Z,85.55
2023-03-27T14:09:42.222Z,85.48
2023-03-27T14:11:47.555Z,85.68
2023-03-27T14:14:07.314Z,85.93
2023-03-27T14:16:31.731Z,86.89
2023-03-27T14:18:56.269Z,86.61
2023-03-27T14:21:06.359Z,86.83
2023-03-27T14:23:26.635Z,86.59
2023-03-27T14:25:36.878Z,86.61
2023-03-27T14:27:42.590Z,86.35
2023-03-27T14:29:45.317Z,86.71
2023-03-27T14:31:49.443Z,86.74
2023-03-27T14:33:58.204Z,87.48
2023-03-27T14:36:05.732Z,87.71
2023-03-27T14:38:33.428Z,88.09
2023-03-27T14:40:41.841Z,88.42
2023-03-27T14:42:52.833Z,89.01
2023-03-27T14:45:23.229Z,89.01
2023-03-27T14:47:26.167Z,88.46
2023-03-27T14:49:37.711Z,89.10
2023-03-27T14:51:42.273Z,89.43
2023-03-27T14:53:49.707Z,89.54
2023-03-27T14:55:55.497Z,89.93
2023-03-27T14:58:11.036Z,90.20
2023-03-27T15:00:17.705Z,90.42
2023-03-27T15:02:30.737Z,90.92
2023-03-27T15:04:34.609Z,91.10
2023-03-27T15:06:37.832Z,91.66
2023-03-27T15:08:46.735Z,92.32
2023-03-27T15:10:53.549Z,92.49
2023-03-27T15:12:56.642Z,93.03
2023-03-27T15:14:59.997Z,92.96
2023-03-27T15:17:15.760Z,93.82
2023-03-27T15:19:23.927Z,94.23
2023-03-27T15:21:39.277Z,94.78
2023-03-27T15:23:51.144Z,95.37
2023-03-27T15:25:57.509Z,95.88
2023-03-27T15:28:06.707Z,95.99
2023-03-27T15:30:38.105Z,96.52
2023-03-27T15:32:50.993Z,97.02
2023-03-27T15:34:58.244Z,97.17
2023-03-27T15:37:06.271Z,97.29
2023-03-27T15:39:20.672Z,97.25
2023-03-27T15:41:35.258Z,97.50
2023-03-27T15:43:38.095Z,97.10
2023-03-27T15:45:57.715Z,97.42
2023-03-27T15:48:03.079Z,97.38
2023-03-27T15:50:28.167Z,97.25
2023-03-27T15:52:34.104Z,97.37
2023-03-27T15:54:36.941Z,97.07
2023-03-27T15:56:44.235Z,96.70
2023-03-27T15:58:58.543Z,96.80
2023-03-27T16:01:18.868Z,96.74
2023-03-27T16:03:25.430Z,96.81
2023-03-27T16:05:28.395Z,96.77
2023-03-27T16:07:47.323Z,96.76
2023-03-27T16:09:52.678Z,96.66
2023-03-27T16:11:57.808Z,96.66
2023-03-27T16:14:00.683Z,96.63
2023-03-27T16:16:21.633Z,96.27
2023-03-27T16:18:32.108Z,96.02
2023-03-27T16:20:39.157Z,96.51
2023-03-27T16:22:41.794Z,95.98
2023-03-27T16:24:44.504Z,96.32
2023-03-27T16:26:47.509Z,95.80
2023-03-27T16:28:50.336Z,95.68
2023-03-27T16:30:53.046Z,95.88
2023-03-27T16:32:56.312Z,95.56
2023-03-27T16:34:59.064Z,95.90
2023-03-27T16:37:01.764Z,96.01
2023-03-27T16:39:05.047Z,96.16
2023-03-27T16:41:12.203Z,96.10
2023-03-27T16:43:15.172Z,96.31
2023-03-27T16:45:17.940Z,96.37
2023-03-27T16:47:23.182Z,96.46
2023-03-27T16:49:26.522Z,96.21
2023-03-27T16:51:29.503Z,96.02
2023-03-27T16:53:32.110Z,96.49
2023-03-27T16:55:34.712Z,97.04
2023-03-27T16:57:37.333Z,97.15
2023-03-27T16:59:40.864Z,97.59
2023-03-27T17:01:43.738Z,97.39
2023-03-27T17:03:46.619Z,96.67
2023-03-27T17:05:49.547Z,96.79
2023-03-27T17:07:52.603Z,96.11
2023-03-27T17:09:55.624Z,96.28
2023-03-27T17:11:58.571Z,96.22
2023-03-27T17:14:01.418Z,96.27
2023-03-27T17:16:05.220Z,96.77
2023-03-27T17:18:07.990Z,96.59
2023-03-27T17:20:11.152Z,96.09
2023-03-27T17:22:14.223Z,96.40
2023-03-27T17:24:19.976Z,96.11
2023-03-27T17:26:34.812Z,96.51
2023-03-27T17:28:37.967Z,96.64
2023-03-27T17:30:56.783Z,96.75
2023-03-27T17:33:06.392Z,96.80
2023-03-27T17:35:09.531Z,96.75
2023-03-27T17:37:12.792Z,96.71
2023-03-27T17:39:15.516Z,96.68
2023-03-27T17:41:18.761Z,96.85
2023-03-27T17:43:21.424Z,96.57
2023-03-27T17:45:24.081Z,97.06
2023-03-27T17:47:26.765Z,96.65
2023-03-27T17:49:30.035Z,96.53
2023-03-27T17:51:34.337Z,96.67
2023-03-27T17:53:38.965Z,96.05
2023-03-27T17:55:41.717Z,96.29
2023-03-27T17:57:47.448Z,96.19
2023-03-27T17:59:53.693Z,96.54
2023-03-27T18:01:56.784Z,96.58
2023-03-27T18:04:00.802Z,96.72
2023-03-27T18:06:04.276Z,96.92
2023-03-27T18:08:08.739Z,97.16
2023-03-27T18:10:17.368Z,97.31
2023-03-27T18:12:19.959Z,97.35
2023-03-27T18:14:22.748Z,97.69
2023-03-27T18:16:25.400Z,97.74
2023-03-27T18:18:28.017Z,97.58
2023-03-27T18:20:30.695Z,97.53
2023-03-27T18:22:33.245Z,97.50
2023-03-27T18:24:35.860Z,97.20
2023-03-27T18:26:38.598Z,96.83
2023-03-27T18:28:42.835Z,96.42
2023-03-27T18:30:46.625Z,95.79
2023-03-27T18:32:49.428Z,95.34
2023-03-27T18:34:52.130Z,94.32
2023-03-27T18:36:54.820Z,93.08
2023-03-27T18:38:57.508Z,91.71
2023-03-27T18:41:00.314Z,91.37
2023-03-27T18:43:03.222Z,90.90
2023-03-27T18:45:08.158Z,90.64
2023-03-27T18:47:11.277Z,89.71
2023-03-27T18:49:24.367Z,89.26
2023-03-27T18:51:28.180Z,88.40
2023-03-27T18:53:31.592Z,87.75
2023-03-27T18:55:34.270Z,87.68
2023-03-27T18:57:38.396Z,87.73
2023-03-27T18:59:41.220Z,87.78
2023-03-27T19:01:44.227Z,87.72
2023-03-27T19:03:46.874Z,87.95
2023-03-27T19:05:51.403Z,87.98
2023-03-27T19:07:57.810Z,87.68
2023-03-27T19:10:00.435Z,86.87
2023-03-27T19:12:03.716Z,87.00
2023-03-27T19:14:06.403Z,86.82
2023-03-27T19:16:14.287Z,87.13
2023-03-27T19:18:18.992Z,85.96
2023-03-27T19:20:22.130Z,86.19
2023-03-27T19:22:24.768Z,85.83
2023-03-27T19:24:27.511Z,85.55
2023-03-27T19:26:33.646Z,84.90
2023-03-27T19:28:37.477Z,84.27
2023-03-27T19:30:40.527Z,83.16
2023-03-27T19:32:43.563Z,83.12
2023-03-27T19:34:46.221Z,83.01
2023-03-27T19:36:51.026Z,82.96
2023-03-27T19:38:54.945Z,82.88
2023-03-27T19:40:57.958Z,83.43
2023-03-27T19:43:00.948Z,83.52
2023-03-27T19:45:03.953Z,83.49
2023-03-27T19:47:07.822Z,83.79
2023-03-27T19:49:10.948Z,83.92
2023-03-27T19:51:13.909Z,83.99
2023-03-27T19:53:17.265Z,83.64
2023-03-27T19:55:24.172Z,82.65
2023-03-27T19:57:26.934Z,83.34
2023-03-27T19:59:31.100Z,83.38
2023-03-27T20:01:37.808Z,82.75
2023-03-27T20:03:40.791Z,83.13
2023-03-27T20:05:48.677Z,82.84
2023-03-27T20:07:51.780Z,82.67
2023-03-27T20:09:54.464Z,82.62
2023-03-27T20:11:57.157Z,82.76
2023-03-27T20:14:00.110Z,82.30
2023-03-27T20:16:05.087Z,82.41
2023-03-27T20:18:08.306Z,82.50
2023-03-27T20:20:11.706Z,82.24
2023-03-27T20:22:17.704Z,82.38
2023-03-27T20:24:20.623Z,82.76
2023-03-27T20:26:24.518Z,82.29
2023-03-27T20:28:27.658Z,82.41
2023-03-27T20:30:31.263Z,82.23
2023-03-27T20:32:33.926Z,82.13
2023-03-27T20:34:38.549Z,82.19
2023-03-27T20:36:43.588Z,82.18
2023-03-27T20:38:46.642Z,82.44
2023-03-27T20:40:54.000Z,82.26
2023-03-27T20:43:04.299Z,82.10
2023-03-27T20:45:07.585Z,82.07
2023-03-27T20:47:13.486Z,81.98
2023-03-27T20:51:34.030Z,82.12
2023-03-27T20:53:40.164Z,82.40
2023-03-27T20:55:56.972Z,82.37
2023-03-27T20:58:03.065Z,82.51
2023-03-27T21:00:11.385Z,82.73
2023-03-27T21:02:19.141Z,82.42
2023-03-27T21:04:21.889Z,82.30
2023-03-27T21:06:25.936Z,82.04
2023-03-27T21:08:31.640Z,81.90
2023-03-27T21:10:34.721Z,82.04
2023-03-27T21:12:39.268Z,81.91
2023-03-27T21:14:43.135Z,82.07
2023-03-27T21:16:46.018Z,82.04
2023-03-27T21:18:48.624Z,81.99
2023-03-27T21:20:51.975Z,82.13
2023-03-27T21:22:54.813Z,82.42
2023-03-27T21:24:57.509Z,82.48
2023-03-27T21:27:00.321Z,82.90
2023-03-27T21:29:03.590Z,83.02
2023-03-27T21:31:08.354Z,83.25
2023-03-27T21:33:11.524Z,83.96
2023-03-27T21:35:14.366Z,84.26
2023-03-27T21:37:17.163Z,83.88
2023-03-27T21:39:19.943Z,84.33
2023-03-27T21:41:22.614Z,84.60
2023-03-27T21:43:26.103Z,84.40
2023-03-27T21:45:28.817Z,84.17
2023-03-27T21:47:44.645Z,84.55
2023-03-27T21:49:50.004Z,84.55
2023-03-27T21:51:52.659Z,84.80
2023-03-27T21:53:55.553Z,84.57
2023-03-27T21:55:58.551Z,84.47
2023-03-27T21:58:01.414Z,84.42
2023-03-27T22:00:05.876Z,84.54
2023-03-27T22:02:08.498Z,84.71
2023-03-27T22:04:11.755Z,84.71
2023-03-27T22:06:14.721Z,85.10
2023-03-27T22:08:18.245Z,84.93
2023-03-27T22:10:21.130Z,85.11
2023-03-27T22:12:23.717Z,84.95
2023-03-27T22:14:26.839Z,84.70
2023-03-27T22:16:30.069Z,84.98
2023-03-27T22:18:32.682Z,84.84
2023-03-27T22:20:35.465Z,84.88
2023-03-27T22:22:38.209Z,85.41
2023-03-27T22:24:41.092Z,85.31
2023-03-27T22:26:43.727Z,85.64
2023-03-27T22:28:46.819Z,85.65
2023-03-27T22:30:51.233Z,85.55
2023-03-27T22:32:55.150Z,85.54
2023-03-27T22:34:57.962Z,85.59
2023-03-27T22:37:02.965Z,85.29
2023-03-27T22:39:06.420Z,85.93
2023-03-27T22:41:11.724Z,85.91
2023-03-27T22:43:22.991Z,85.90
2023-03-27T22:45:26.276Z,85.83
2023-03-27T22:47:31.274Z,86.36
2023-03-27T22:49:36.174Z,86.28
2023-03-27T22:51:38.900Z,86.38
2023-03-27T22:53:41.978Z,86.45
2023-03-27T22:55:51.255Z,86.54
2023-03-27T22:57:53.836Z,86.81
2023-03-27T22:59:56.643Z,86.67
2023-03-27T23:01:59.601Z,87.27
2023-03-27T23:04:02.534Z,87.10
2023-03-27T23:06:05.614Z,87.54
2023-03-27T23:08:08.846Z,87.88
2023-03-27T23:10:11.522Z,87.80
2023-03-27T23:12:14.756Z,87.98
2023-03-27T23:14:17.459Z,88.12
2023-03-27T23:16:20.134Z,88.01
2023-03-27T23:18:26.171Z,88.14
2023-03-27T23:20:29.781Z,88.22
2023-03-27T23:22:32.360Z,88.28
2023-03-27T23:24:35.010Z,88.54
2023-03-27T23:26:37.743Z,88.42
2023-03-27T23:28:42.428Z,88.53
2023-03-27T23:30:59.591Z,88.60
2023-03-27T23:33:02.623Z,88.57
2023-03-27T23:35:07.745Z,88.61
2023-03-27T23:37:10.735Z,88.76
2023-03-27T23:39:13.481Z,88.79
2023-03-27T23:41:16.787Z,88.93
2023-03-27T23:43:19.499Z,88.50
2023-03-27T23:45:22.092Z,88.56
2023-03-27T23:47:24.763Z,88.90
2023-03-27T23:49:27.472Z,88.62
2023-03-27T23:51:30.079Z,88.61
2023-03-27T23:53:33.049Z,88.91
2023-03-27T23:55:35.966Z,88.84
2023-03-27T23:57:38.626Z,89.02
2023-03-27T23:59:41.633Z,89.05
